< Typhoon 196909 1969 Season Typhoon 196911 >
Typhoon 196910 (DORIS)
General InformationTrack Information on Google Maps || Disaster Info.ResourceGoogle EarthGE AnimationAtom FeedGeoJSON
Detalied Best Track (Time Zone = UTC)
Year Month Day Hour Lat. Long. Pressure (hPa) Wind (kt) Class Image Chart
1969 8 29 00 10.0 126.5 1008 0 2 -- Chart
1969 8 29 06 10.6 125.3 1006 0 2 -- Chart
1969 8 29 12 11.0 124.0 1008 0 2 -- Chart
1969 8 29 18 11.4 123.0 1008 0 2 -- Chart
1969 8 30 00 11.9 121.8 1008 0 2 -- Chart
1969 8 30 06 12.2 120.7 1007 0 2 -- Chart
1969 8 30 12 12.8 119.5 1006 0 2 -- Chart
1969 8 30 18 13.4 118.3 1002 0 2 -- Chart
1969 8 31 00 14.2 117.3 998 0 2 -- Chart
1969 8 31 06 14.8 116.3 990 0 9 -- Chart
1969 8 31 12 15.5 115.3 985 0 9 -- Chart
1969 8 31 18 16.0 114.0 980 0 9 -- Chart
1969 9 1 00 16.4 112.8 980 0 9 -- Chart
1969 9 1 06 16.7 111.4 975 0 9 -- Chart
1969 9 1 12 16.8 110.1 975 0 9 -- Chart
1969 9 1 18 17.0 108.8 975 0 9 -- Chart
1969 9 2 00 17.1 107.4 980 0 9 -- Chart
1969 9 2 06 17.2 106.1 992 0 2 -- Chart
1969 9 2 12 17.3 104.7 994 0 2 -- Chart
1969 9 2 18 17.2 103.4 1000 0 2 -- Chart
1969 9 3 00 17.2 102.0 1000 0 2 -- Chart
1969 9 3 06 17.0 100.7 999 0 2 -- Chart
1969 9 3 12 16.9 99.6 1002 0 2 -- Chart
1969 9 3 18 16.9 98.7 1002 0 2 -- Chart
Japan Meteorological Agency Best Track Data | Correction Date : 1990-10-17
< Typhoon 196909 1969 Season Typhoon 196911 >

Help